Flight Track Log - Related Links

Times and Time Zones

All times are in EDT time to prevent confusion due to time zone crossing. See the CSH9219 flight status page for this flight to view local times or setup timezone preferences in your user account.


Time Position Orientation Groundspeed Altitude Reporting Facility
EDT Latitude Longitude Course Direction KTS MPH feet Rate Location/Type
Sat 09:23:00 AM 43.4199 86.8584 223° Southwest  Level Estimated
Sat 09:24:00 AM 43.3221 86.7364 222° Southwest  Level Estimated
Sat 09:25:00 AM 43.2481 86.6445 222° Southwest  Level Estimated
Sat 09:26:00 AM 43.1740 86.5528 222° Southwest  Level Estimated
Sat 09:27:00 AM 43.0999 86.4613 222° Southwest  Level Estimated
Sat 09:28:00 AM 43.0257 86.3701 222° Southwest  Level Estimated
Sat 09:29:00 AM 42.9514 86.2791 222° Southwest  Level Estimated
Sat 09:30:00 AM 42.8770 86.1883 222° Southwest  Level Estimated
Sat 09:31:00 AM 42.8026 86.0977 222° Southwest  Level Estimated
Sat 09:32:00 AM 42.7281 86.0073 222° Southwest  Level Estimated
Sat 09:33:00 AM 42.6535 85.9172 222° Southwest  Level Estimated
Sat 09:34:00 AM 42.5789 85.8273 222° Southwest  Level Estimated
Sat 09:35:00 AM 42.5042 85.7376 222° Southwest  Level Estimated
Sat 09:36:00 AM 42.4294 85.6481 221° Southwest  Level Estimated
Sat 09:37:00 AM 42.3545 85.5588 221° Southwest  Level Estimated
Sat 09:38:00 AM 42.2796 85.4697 221° Southwest  Level Estimated
Sat 09:39:00 AM 42.2046 85.3809 221° Southwest  Level Estimated
Sat 09:40:00 AM 42.1295 85.2922 221° Southwest  Level Estimated
Sat 09:41:00 AM 42.0544 85.2038 221° Southwest  Level Estimated
Sat 09:42:00 AM 41.9792 85.1155 221° Southwest  Level Estimated
Sat 09:43:00 AM 41.9039 85.0275 221° Southwest  Level Estimated
Sat 09:44:00 AM 41.8286 84.9397 221° Southwest  Level Estimated
Sat 09:45:00 AM 41.7532 84.8521 221° Southwest  Level Estimated
Sat 09:46:00 AM 41.6777 84.7647 221° Southwest  Level Estimated
Sat 09:47:00 AM 41.6022 84.6775 221° Southwest  Level Estimated
Sat 09:48:00 AM 41.5266 84.5905 221° Southwest  Level Estimated
Sat 09:49:00 AM 41.4510 84.5037 221° Southwest  Level Estimated
Sat 09:50:00 AM 41.3752 84.4171 221° Southwest  Level Estimated
Sat 09:51:00 AM 41.2994 84.3307 221° Southwest  Level Estimated
Sat 09:52:00 AM 41.2236 84.2445 221° Southwest  Level Estimated
Sat 09:53:00 AM 41.1477 84.1585 220° Southwest  Level Estimated
Sat 09:54:00 AM 41.0717 84.0727 220° Southwest  Level Estimated
Sat 09:55:00 AM 40.9956 83.9872 220° Southwest  Level Estimated
Sat 09:56:00 AM 40.9195 83.9018 220° Southwest  Level Estimated
Sat 09:57:00 AM 40.8433 83.8166 220° Southwest  Level Estimated
Sat 09:58:00 AM 40.7671 83.7316 220° Southwest  Level Estimated
Sat 09:59:00 AM 40.6908 83.6468 220° Southwest  Level Estimated
Sat 10:00:00 AM 40.6144 83.5621 220° Southwest  Level Estimated
Sat 10:01:00 AM 40.5380 83.4777 220° Southwest  Level Estimated
Sat 10:02:00 AM 40.4615 83.3935 220° Southwest  Level Estimated
Sat 10:03:00 AM 40.3850 83.3095 220° Southwest  Level Estimated
Sat 10:04:00 AM 40.3084 83.2256 220° Southwest  Level Estimated
Sat 10:05:00 AM 40.2317 83.1420 220° Southwest  Level Estimated
Sat 10:06:00 AM 40.1550 83.0585 220° Southwest  Level Estimated
Sat 10:07:00 AM 40.0782 82.9752 220° Southwest  Level Estimated
Sat 10:08:00 AM 40.0014 82.8921 220° Southwest  Level Estimated
Sat 10:09:00 AM 39.9245 82.8092 220° Southwest  Level Estimated
Sat 10:10:00 AM 39.8475 82.7265 220° Southwest  Level Estimated
Sat 10:11:00 AM 39.7705 82.6440 219° Southwest  Level Estimated
Sat 10:12:00 AM 39.6934 82.5617 219° Southwest  Level Estimated
Sat 10:13:00 AM 39.6163 82.4795 219° Southwest  Level Estimated
Sat 10:14:00 AM 39.5391 82.3975 219° Southwest  Level Estimated
Sat 10:15:00 AM 39.4618 82.3157 219° Southwest  Level Estimated
Sat 10:16:00 AM 39.3845 82.2341 219° Southwest  Level Estimated
Sat 10:17:00 AM 39.3071 82.1527 219° Southwest  Level Estimated
Sat 10:18:00 AM 39.2297 82.0714 219° Southwest  Level Estimated
Sat 10:19:00 AM 39.1522 81.9903 219° Southwest  Level Estimated
Sat 10:20:00 AM 39.0747 81.9094 219° Southwest  Level Estimated
Sat 10:21:00 AM 38.9971 81.8287 219° Southwest  Level Estimated
Sat 10:22:00 AM 38.9194 81.7482 219° Southwest  Level Estimated
Sat 10:23:00 AM 38.8418 81.6678 219° Southwest  Level Estimated
Sat 10:24:00 AM 38.7640 81.5876 219° Southwest  Level Estimated
Sat 10:25:00 AM 38.6862 81.5076 219° Southwest  Level Estimated
Sat 10:26:00 AM 38.6083 81.4278 219° Southwest  Level Estimated
Sat 10:27:00 AM 38.5304 81.3481 219° Southwest  Level Estimated
Sat 10:28:00 AM 38.4524 81.2686 219° Southwest  Level Estimated
Sat 10:29:00 AM 38.3744 81.1893 219° Southwest  Level Estimated
Sat 10:30:00 AM 38.2963 81.1101 219° Southwest  Level Estimated
Sat 10:31:00 AM 38.2182 81.0311 218° Southwest  Level Estimated
Sat 10:32:00 AM 38.1456 80.9580 218° Southwest  Level Estimated
Sat 10:33:00 AM 38.0730 80.8850 218° Southwest  Level Estimated
Sat 10:34:00 AM 38.0004 80.8122 218° Southwest  Level Estimated
Sat 10:35:00 AM 37.9277 80.7395 218° Southwest  Level Estimated
Sat 10:36:00 AM 37.8550 80.6669 218° Southwest  Level Estimated
Sat 10:37:00 AM 37.7822 80.5945 218° Southwest  Level Estimated
Sat 10:38:00 AM 37.7094 80.5222 218° Southwest  Level Estimated
Sat 10:39:00 AM 37.6366 80.4501 218° Southwest  Level Estimated
Sat 10:40:00 AM 37.5637 80.3781 218° Southwest  Level Estimated
Sat 10:41:00 AM 37.4907 80.3063 218° Southwest  Level Estimated
Sat 10:42:00 AM 37.4177 80.2346 218° Southwest  Level Estimated
Sat 10:43:00 AM 37.3447 80.1630 218° Southwest  Level Estimated
Sat 10:44:00 AM 37.2716 80.0916 218° Southwest  Level Estimated
Sat 10:45:00 AM 37.1985 80.0203 218° Southwest  Level Estimated
Sat 10:46:00 AM 37.1254 79.9492 218° Southwest  Level Estimated
Sat 10:47:00 AM 37.0522 79.8782 218° Southwest  Level Estimated
Sat 10:48:00 AM 37.0385 79.8649 218° Southwest  Level Estimated
Sat 10:49:00 AM 37.0385 79.8649 North  Level Estimated
Sat 10:50:00 AM 37.0385 79.8649 North  Level Estimated
Sat 10:51:00 AM 37.0385 79.8649 North  Level Estimated
Sat 10:52:00 AM 37.0385 79.8649 North  Level Estimated
Sat 10:53:00 AM 37.0385 79.8649 North  Level Estimated

Login

Don't have an account? Register now (free) for customized features, flight alerts, and more!